sensor_id;sensor_type;location;lat;lon;timestamp;pressure;altitude;pressure_sealevel;temperature;humidity
73981;BME280;62348;51.412;5.436;2024-01-30T00:01:19;102475.88;;;5.26;100.00
73981;BME280;62348;51.412;5.436;2024-01-30T00:03:45;102473.56;;;5.23;100.00
73981;BME280;62348;51.412;5.436;2024-01-30T00:06:11;102480.59;;;5.24;100.00
73981;BME280;62348;51.412;5.436;2024-01-30T00:08:37;102472.72;;;5.22;100.00
73981;BME280;62348;51.412;5.436;2024-01-30T00:11:02;102477.28;;;5.22;100.00
73981;BME280;62348;51.412;5.436;2024-01-30T00:13:28;102470.41;;;5.19;100.00
73981;BME280;62348;51.412;5.436;2024-01-30T00:15:53;102469.75;;;5.17;100.00
73981;BME280;62348;51.412;5.436;2024-01-30T00:18:19;102479.66;;;5.17;100.00
73981;BME280;62348;51.412;5.436;2024-01-30T00:20:44;102472.63;;;5.16;100.00
73981;BME280;62348;51.412;5.436;2024-01-30T00:23:10;102468.47;;;5.13;100.00
73981;BME280;62348;51.412;5.436;2024-01-30T00:25:35;102465.78;;;5.13;100.00
73981;BME280;62348;51.412;5.436;2024-01-30T00:28:00;102467.66;;;5.13;100.00
73981;BME280;62348;51.412;5.436;2024-01-30T00:30:26;102469.47;;;5.12;100.00
73981;BME280;62348;51.412;5.436;2024-01-30T00:32:52;102462.47;;;5.11;100.00
73981;BME280;62348;51.412;5.436;2024-01-30T00:35:17;102470.50;;;5.11;100.00
73981;BME280;62348;51.412;5.436;2024-01-30T00:37:42;102464.50;;;5.09;100.00
73981;BME280;62348;51.412;5.436;2024-01-30T00:40:08;102467.19;;;5.09;100.00
73981;BME280;62348;51.412;5.436;2024-01-30T00:42:35;102457.47;;;5.08;100.00
73981;BME280;62348;51.412;5.436;2024-01-30T00:45:01;102461.00;;;5.08;100.00
73981;BME280;62348;51.412;5.436;2024-01-30T00:47:26;102467.00;;;5.11;100.00
73981;BME280;62348;51.412;5.436;2024-01-30T00:49:52;102459.13;;;5.09;100.00
73981;BME280;62348;51.412;5.436;2024-01-30T00:52:17;102459.97;;;5.09;100.00
73981;BME280;62348;51.412;5.436;2024-01-30T00:54:42;102455.41;;;5.10;100.00
73981;BME280;62348;51.412;5.436;2024-01-30T00:57:08;102453.59;;;5.11;100.00
73981;BME280;62348;51.412;5.436;2024-01-30T00:59:34;102456.06;;;5.12;100.00
73981;BME280;62348;51.412;5.436;2024-01-30T01:01:59;102456.75;;;5.14;100.00
73981;BME280;62348;51.412;5.436;2024-01-30T01:04:25;102453.84;;;5.16;100.00
73981;BME280;62348;51.412;5.436;2024-01-30T01:06:51;102447.50;;;5.17;100.00
73981;BME280;62348;51.412;5.436;2024-01-30T01:09:17;102447.50;;;5.17;100.00
73981;BME280;62348;51.412;5.436;2024-01-30T01:11:42;102450.00;;;5.18;100.00
73981;BME280;62348;51.412;5.436;2024-01-30T01:14:08;102444.63;;;5.18;100.00
73981;BME280;62348;51.412;5.436;2024-01-30T01:16:33;102440.91;;;5.19;100.00
73981;BME280;62348;51.412;5.436;2024-01-30T01:18:59;102449.81;;;5.20;100.00
73981;BME280;62348;51.412;5.436;2024-01-30T01:21:25;102447.94;;;5.20;100.00
73981;BME280;62348;51.412;5.436;2024-01-30T01:23:51;102443.41;;;5.21;100.00
73981;BME280;62348;51.412;5.436;2024-01-30T01:26:16;102451.28;;;5.22;100.00
73981;BME280;62348;51.412;5.436;2024-01-30T01:28:41;102441.38;;;5.23;100.00
73981;BME280;62348;51.412;5.436;2024-01-30T01:31:07;102444.88;;;5.23;100.00
73981;BME280;62348;51.412;5.436;2024-01-30T01:33:33;102449.25;;;5.24;100.00
73981;BME280;62348;51.412;5.436;2024-01-30T01:35:59;102447.38;;;5.25;100.00
73981;BME280;62348;51.412;5.436;2024-01-30T01:38:27;102438.16;;;5.27;100.00
73981;BME280;62348;51.412;5.436;2024-01-30T01:40:53;102444.34;;;5.28;100.00
73981;BME280;62348;51.412;5.436;2024-01-30T01:43:18;102436.94;;;5.30;100.00
73981;BME280;62348;51.412;5.436;2024-01-30T01:45:44;102442.13;;;5.32;100.00
73981;BME280;62348;51.412;5.436;2024-01-30T01:48:10;102440.06;;;5.34;100.00
73981;BME280;62348;51.412;5.436;2024-01-30T01:50:36;102431.00;;;5.35;100.00
73981;BME280;62348;51.412;5.436;2024-01-30T01:53:02;102431.47;;;5.38;100.00
73981;BME280;62348;51.412;5.436;2024-01-30T01:55:29;102432.09;;;5.40;100.00
73981;BME280;62348;51.412;5.436;2024-01-30T01:57:54;102430.28;;;5.41;100.00
73981;BME280;62348;51.412;5.436;2024-01-30T02:00:20;102425.72;;;5.41;100.00
73981;BME280;62348;51.412;5.436;2024-01-30T02:02:46;102424.06;;;5.40;100.00
73981;BME280;62348;51.412;5.436;2024-01-30T02:05:12;102421.38;;;5.40;100.00
73981;BME280;62348;51.412;5.436;2024-01-30T02:07:37;102420.38;;;5.41;100.00
73981;BME280;62348;51.412;5.436;2024-01-30T02:10:03;102418.69;;;5.40;100.00
73981;BME280;62348;51.412;5.436;2024-01-30T02:12:29;102421.38;;;5.40;100.00
73981;BME280;62348;51.412;5.436;2024-01-30T02:14:55;102417.03;;;5.39;100.00
73981;BME280;62348;51.412;5.436;2024-01-30T02:17:20;102423.41;;;5.38;100.00
73981;BME280;62348;51.412;5.436;2024-01-30T02:19:46;102424.25;;;5.39;100.00
73981;BME280;62348;51.412;5.436;2024-01-30T02:22:12;102420.09;;;5.36;100.00
73981;BME280;62348;51.412;5.436;2024-01-30T02:24:38;102419.91;;;5.38;100.00
73981;BME280;62348;51.412;5.436;2024-01-30T02:27:04;102414.72;;;5.36;100.00
73981;BME280;62348;51.412;5.436;2024-01-30T02:29:29;102410.41;;;5.35;100.00
73981;BME280;62348;51.412;5.436;2024-01-30T02:31:54;102407.50;;;5.37;100.00
73981;BME280;62348;51.412;5.436;2024-01-30T02:34:20;102409.34;;;5.36;100.00
73981;BME280;62348;51.412;5.436;2024-01-30T02:36:46;102413.06;;;5.35;100.00
73981;BME280;62348;51.412;5.436;2024-01-30T02:39:11;102413.06;;;5.35;100.00
73981;BME280;62348;51.412;5.436;2024-01-30T02:41:37;102412.22;;;5.35;100.00
73981;BME280;62348;51.412;5.436;2024-01-30T02:44:03;102413.06;;;5.35;100.00
73981;BME280;62348;51.412;5.436;2024-01-30T02:46:29;102411.41;;;5.34;100.00
73981;BME280;62348;51.412;5.436;2024-01-30T02:48:54;102408.72;;;5.34;100.00
73981;BME280;62348;51.412;5.436;2024-01-30T02:51:20;102407.72;;;5.35;100.00
73981;BME280;62348;51.412;5.436;2024-01-30T02:53:45;102410.41;;;5.35;100.00
73981;BME280;62348;51.412;5.436;2024-01-30T02:56:11;102413.06;;;5.35;100.00
73981;BME280;62348;51.412;5.436;2024-01-30T02:58:39;102412.84;;;5.37;100.00
73981;BME280;62348;51.412;5.436;2024-01-30T03:01:05;102414.53;;;5.38;100.00
73981;BME280;62348;51.412;5.436;2024-01-30T03:03:31;102404.63;;;5.38;100.00
73981;BME280;62348;51.412;5.436;2024-01-30T03:05:56;102408.16;;;5.39;100.00
73981;BME280;62348;51.412;5.436;2024-01-30T03:08:21;102410.63;;;5.40;100.00
73981;BME280;62348;51.412;5.436;2024-01-30T03:10:47;102407.13;;;5.40;100.00
73981;BME280;62348;51.412;5.436;2024-01-30T03:13:12;102405.28;;;5.40;100.00
73981;BME280;62348;51.412;5.436;2024-01-30T03:15:38;102402.59;;;5.40;100.00
73981;BME280;62348;51.412;5.436;2024-01-30T03:18:03;102398.09;;;5.41;100.00
73981;BME280;62348;51.412;5.436;2024-01-30T03:20:29;102401.75;;;5.40;100.00
73981;BME280;62348;51.412;5.436;2024-01-30T03:22:55;102385.66;;;5.40;100.00
73981;BME280;62348;51.412;5.436;2024-01-30T03:25:21;102386.50;;;5.40;100.00
73981;BME280;62348;51.412;5.436;2024-01-30T03:27:47;102386.50;;;5.40;100.00
73981;BME280;62348;51.412;5.436;2024-01-30T03:30:12;102383.81;;;5.40;100.00
73981;BME280;62348;51.412;5.436;2024-01-30T03:32:37;102384.66;;;5.41;100.00
73981;BME280;62348;51.412;5.436;2024-01-30T03:35:03;102385.50;;;5.41;100.00
73981;BME280;62348;51.412;5.436;2024-01-30T03:37:29;102385.50;;;5.41;100.00
73981;BME280;62348;51.412;5.436;2024-01-30T03:39:54;102382.63;;;5.43;100.00
73981;BME280;62348;51.412;5.436;2024-01-30T03:42:20;102383.44;;;5.43;100.00
73981;BME280;62348;51.412;5.436;2024-01-30T03:44:45;102386.59;;;5.47;100.00
73981;BME280;62348;51.412;5.436;2024-01-30T03:47:10;102394.25;;;5.50;100.00
73981;BME280;62348;51.412;5.436;2024-01-30T03:49:36;102383.13;;;5.53;100.00
73981;BME280;62348;51.412;5.436;2024-01-30T03:52:01;102389.78;;;5.57;100.00
73981;BME280;62348;51.412;5.436;2024-01-30T03:54:27;102395.59;;;5.61;100.00
73981;BME280;62348;51.412;5.436;2024-01-30T03:56:52;102385.31;;;5.64;100.00
73981;BME280;62348;51.412;5.436;2024-01-30T03:59:18;102386.78;;;5.67;100.00
73981;BME280;62348;51.412;5.436;2024-01-30T04:01:48;102385.59;;;5.70;100.00
73981;BME280;62348;51.412;5.436;2024-01-30T04:04:13;102396.97;;;5.72;100.00
73981;BME280;62348;51.412;5.436;2024-01-30T04:06:38;102387.88;;;5.73;100.00
73981;BME280;62348;51.412;5.436;2024-01-30T04:09:04;102390.19;;;5.76;100.00
73981;BME280;62348;51.412;5.436;2024-01-30T04:11:29;102386.50;;;5.77;100.00
73981;BME280;62348;51.412;5.436;2024-01-30T04:13:54;102391.66;;;5.78;100.00
73981;BME280;62348;51.412;5.436;2024-01-30T04:16:20;102387.97;;;5.79;100.00
73981;BME280;62348;51.412;5.436;2024-01-30T04:18:47;102388.59;;;5.81;100.00
73981;BME280;62348;51.412;5.436;2024-01-30T04:21:12;102380.38;;;5.83;100.00
73981;BME280;62348;51.412;5.436;2024-01-30T04:23:37;102377.28;;;5.86;100.00
73981;BME280;62348;51.412;5.436;2024-01-30T04:26:04;102374.22;;;5.89;100.00
73981;BME280;62348;51.412;5.436;2024-01-30T04:28:29;102373.63;;;5.94;100.00
73981;BME280;62348;51.412;5.436;2024-01-30T04:30:55;102374.97;;;5.98;100.00
73981;BME280;62348;51.412;5.436;2024-01-30T04:33:20;102372.91;;;6.00;100.00
73981;BME280;62348;51.412;5.436;2024-01-30T04:35:46;102366.94;;;6.04;100.00
73981;BME280;62348;51.412;5.436;2024-01-30T04:38:11;102361.03;;;6.09;100.00
73981;BME280;62348;51.412;5.436;2024-01-30T04:40:36;102356.06;;;6.13;100.00
73981;BME280;62348;51.412;5.436;2024-01-30T04:43:02;102355.50;;;6.17;100.00
73981;BME280;62348;51.412;5.436;2024-01-30T04:45:27;102355.53;;;6.24;100.00
73981;BME280;62348;51.412;5.436;2024-01-30T04:47:52;102345.25;;;6.28;100.00
73981;BME280;62348;51.412;5.436;2024-01-30T04:50:18;102352.72;;;6.32;100.00
73981;BME280;62348;51.412;5.436;2024-01-30T04:52:44;102338.06;;;6.35;100.00
73981;BME280;62348;51.412;5.436;2024-01-30T04:55:09;102347.78;;;6.36;100.00
73981;BME280;62348;51.412;5.436;2024-01-30T04:57:34;102346.38;;;6.40;100.00
73981;BME280;62348;51.412;5.436;2024-01-30T05:00:00;102343.09;;;6.44;100.00
73981;BME280;62348;51.412;5.436;2024-01-30T05:02:25;102341.66;;;6.49;100.00
73981;BME280;62348;51.412;5.436;2024-01-30T05:04:51;102342.53;;;6.56;100.00
73981;BME280;62348;51.412;5.436;2024-01-30T05:07:16;102342.97;;;6.59;100.00
73981;BME280;62348;51.412;5.436;2024-01-30T05:09:44;102344.44;;;6.62;100.00
73981;BME280;62348;51.412;5.436;2024-01-30T05:12:10;102343.84;;;6.67;100.00
73981;BME280;62348;51.412;5.436;2024-01-30T05:14:35;102351.31;;;6.71;100.00
73981;BME280;62348;51.412;5.436;2024-01-30T05:17:00;102355.25;;;6.75;100.00
73981;BME280;62348;51.412;5.436;2024-01-30T05:19:28;102350.53;;;6.77;100.00
73981;BME280;62348;51.412;5.436;2024-01-30T05:21:53;102354.69;;;6.80;100.00
73981;BME280;62348;51.412;5.436;2024-01-30T05:24:18;102358.00;;;6.82;100.00
73981;BME280;62348;51.412;5.436;2024-01-30T05:26:44;102350.56;;;6.84;100.00
73981;BME280;62348;51.412;5.436;2024-01-30T05:29:09;102352.88;;;6.87;100.00
73981;BME280;62348;51.412;5.436;2024-01-30T05:31:35;102356.19;;;6.89;100.00
73981;BME280;62348;51.412;5.436;2024-01-30T05:34:01;102355.13;;;6.90;100.00
73981;BME280;62348;51.412;5.436;2024-01-30T05:36:26;102352.88;;;6.94;100.00
73981;BME280;62348;51.412;5.436;2024-01-30T05:38:51;102358.88;;;6.96;100.00
73981;BME280;62348;51.412;5.436;2024-01-30T05:41:17;102355.81;;;6.99;100.00
73981;BME280;62348;51.412;5.436;2024-01-30T05:43:42;102352.94;;;7.00;100.00
73981;BME280;62348;51.412;5.436;2024-01-30T05:46:08;102354.38;;;7.03;100.00
73981;BME280;62348;51.412;5.436;2024-01-30T05:48:33;102354.19;;;7.04;100.00
73981;BME280;62348;51.412;5.436;2024-01-30T05:51:00;102349.44;;;7.07;100.00
73981;BME280;62348;51.412;5.436;2024-01-30T05:53:26;102364.31;;;7.09;100.00
73981;BME280;62348;51.412;5.436;2024-01-30T05:55:51;102358.75;;;7.11;100.00
73981;BME280;62348;51.412;5.436;2024-01-30T05:58:17;102361.44;;;7.11;100.00
73981;BME280;62348;51.412;5.436;2024-01-30T06:00:42;102355.06;;;7.12;100.00
73981;BME280;62348;51.412;5.436;2024-01-30T06:03:07;102349.47;;;7.13;100.00
73981;BME280;62348;51.412;5.436;2024-01-30T06:05:33;102355.47;;;7.15;100.00
73981;BME280;62348;51.412;5.436;2024-01-30T06:07:58;102355.47;;;7.15;100.00
73981;BME280;62348;51.412;5.436;2024-01-30T06:10:23;102358.78;;;7.17;100.00
73981;BME280;62348;51.412;5.436;2024-01-30T06:12:49;102361.50;;;7.17;100.00
73981;BME280;62348;51.412;5.436;2024-01-30T06:15:14;102349.69;;;7.18;100.00
73981;BME280;62348;51.412;5.436;2024-01-30T06:17:40;102359.41;;;7.19;100.00
73981;BME280;62348;51.412;5.436;2024-01-30T06:20:06;102351.16;;;7.21;100.00
73981;BME280;62348;51.412;5.436;2024-01-30T06:22:31;102358.19;;;7.22;100.00
73981;BME280;62348;51.412;5.436;2024-01-30T06:24:57;102365.88;;;7.25;100.00
73981;BME280;62348;51.412;5.436;2024-01-30T06:27:22;102355.28;;;7.23;100.00
73981;BME280;62348;51.412;5.436;2024-01-30T06:29:48;102363.38;;;7.23;100.00
73981;BME280;62348;51.412;5.436;2024-01-30T06:32:13;102359.63;;;7.24;100.00
73981;BME280;62348;51.412;5.436;2024-01-30T06:34:38;102368.34;;;7.27;100.00
73981;BME280;62348;51.412;5.436;2024-01-30T06:37:05;102367.31;;;7.28;100.00
73981;BME280;62348;51.412;5.436;2024-01-30T06:39:30;102367.13;;;7.29;100.00
73981;BME280;62348;51.412;5.436;2024-01-30T06:41:56;102366.91;;;7.31;100.00
73981;BME280;62348;51.412;5.436;2024-01-30T06:44:21;102372.09;;;7.32;100.00
73981;BME280;62348;51.412;5.436;2024-01-30T06:46:47;102366.72;;;7.32;100.00
73981;BME280;62348;51.412;5.436;2024-01-30T06:49:12;102373.56;;;7.35;100.00
73981;BME280;62348;51.412;5.436;2024-01-30T06:51:38;102386.59;;;7.38;100.00
73981;BME280;62348;51.412;5.436;2024-01-30T06:54:03;102384.53;;;7.40;100.00
73981;BME280;62348;51.412;5.436;2024-01-30T06:56:29;102389.50;;;7.43;100.00
73981;BME280;62348;51.412;5.436;2024-01-30T06:58:54;102388.50;;;7.44;100.00
73981;BME280;62348;51.412;5.436;2024-01-30T07:01:20;102388.06;;;7.47;100.00
73981;BME280;62348;51.412;5.436;2024-01-30T07:03:46;102391.19;;;7.51;100.00
73981;BME280;62348;51.412;5.436;2024-01-30T07:06:11;102403.44;;;7.53;100.00
73981;BME280;62348;51.412;5.436;2024-01-30T07:08:37;102406.13;;;7.53;100.00
73981;BME280;62348;51.412;5.436;2024-01-30T07:11:04;102407.75;;;7.54;100.00
73981;BME280;62348;51.412;5.436;2024-01-30T07:13:30;102408.38;;;7.56;100.00
73981;BME280;62348;51.412;5.436;2024-01-30T07:15:56;102418.97;;;7.58;100.00
73981;BME280;62348;51.412;5.436;2024-01-30T07:18:21;102418.97;;;7.58;100.00
73981;BME280;62348;51.412;5.436;2024-01-30T07:20:46;102420.63;;;7.59;100.00
73981;BME280;62348;51.412;5.436;2024-01-30T07:23:13;102430.56;;;7.58;100.00
73981;BME280;62348;51.412;5.436;2024-01-30T07:25:41;102430.56;;;7.58;100.00
73981;BME280;62348;51.412;5.436;2024-01-30T07:28:07;102431.41;;;7.59;100.00
73981;BME280;62348;51.412;5.436;2024-01-30T07:30:35;102424.16;;;7.59;100.00
73981;BME280;62348;51.412;5.436;2024-01-30T07:33:00;102428.47;;;7.60;100.00
73981;BME280;62348;51.412;5.436;2024-01-30T07:35:26;102433.03;;;7.60;100.00
73981;BME280;62348;51.412;5.436;2024-01-30T07:37:51;102439.25;;;7.60;100.00
73981;BME280;62348;51.412;5.436;2024-01-30T07:40:17;102437.59;;;7.59;100.00
73981;BME280;62348;51.412;5.436;2024-01-30T07:42:42;102438.63;;;7.58;100.00
73981;BME280;62348;51.412;5.436;2024-01-30T07:45:08;102438.00;;;7.56;100.00
73981;BME280;62348;51.412;5.436;2024-01-30T07:47:34;102445.88;;;7.58;100.00
73981;BME280;62348;51.412;5.436;2024-01-30T07:49:59;102448.78;;;7.56;100.00
73981;BME280;62348;51.412;5.436;2024-01-30T07:52:25;102437.19;;;7.56;100.00
73981;BME280;62348;51.412;5.436;2024-01-30T07:54:50;102443.38;;;7.56;100.00
73981;BME280;62348;51.412;5.436;2024-01-30T07:57:16;102446.06;;;7.56;100.00
73981;BME280;62348;51.412;5.436;2024-01-30T07:59:45;102456.84;;;7.56;100.00
73981;BME280;62348;51.412;5.436;2024-01-30T08:02:14;102451.47;;;7.56;100.00
73981;BME280;62348;51.412;5.436;2024-01-30T08:04:39;102462.22;;;7.56;100.00
73981;BME280;62348;51.412;5.436;2024-01-30T08:07:05;102464.09;;;7.56;100.00
73981;BME280;62348;51.412;5.436;2024-01-30T08:09:30;102463.03;;;7.57;100.00
73981;BME280;62348;51.412;5.436;2024-01-30T08:11:56;102463.91;;;7.57;100.00
73981;BME280;62348;51.412;5.436;2024-01-30T08:14:21;102465.75;;;7.57;100.00
73981;BME280;62348;51.412;5.436;2024-01-30T08:16:47;102469.09;;;7.59;100.00
73981;BME280;62348;51.412;5.436;2024-01-30T08:19:12;102467.22;;;7.59;100.00
73981;BME280;62348;51.412;5.436;2024-01-30T08:21:38;102465.97;;;7.62;100.00
73981;BME280;62348;51.412;5.436;2024-01-30T08:24:04;102463.09;;;7.63;100.00
73981;BME280;62348;51.412;5.436;2024-01-30T08:26:31;102467.22;;;7.66;100.00
73981;BME280;62348;51.412;5.436;2024-01-30T08:28:56;102469.72;;;7.68;100.00
73981;BME280;62348;51.412;5.436;2024-01-30T08:31:22;102472.84;;;7.71;100.00
73981;BME280;62348;51.412;5.436;2024-01-30T08:33:47;102471.59;;;7.74;100.00
73981;BME280;62348;51.412;5.436;2024-01-30T08:36:13;102472.03;;;7.77;100.00
73981;BME280;62348;51.412;5.436;2024-01-30T08:38:38;102466.44;;;7.79;100.00
73981;BME280;62348;51.412;5.436;2024-01-30T08:41:04;102470.59;;;7.81;100.00
73981;BME280;62348;51.412;5.436;2024-01-30T08:43:30;102471.44;;;7.82;100.00
73981;BME280;62348;51.412;5.436;2024-01-30T08:45:58;102470.00;;;7.86;100.00
73981;BME280;62348;51.412;5.436;2024-01-30T08:48:25;102463.38;;;7.89;100.00
73981;BME280;62348;51.412;5.436;2024-01-30T08:50:50;102466.50;;;7.92;100.00
73981;BME280;62348;51.412;5.436;2024-01-30T08:53:16;102471.47;;;7.95;100.00
73981;BME280;62348;51.412;5.436;2024-01-30T08:55:41;102469.41;;;7.97;100.00
73981;BME280;62348;51.412;5.436;2024-01-30T08:58:07;102469.84;;;8.01;100.00
73981;BME280;62348;51.412;5.436;2024-01-30T09:00:33;102459.69;;;8.03;100.00
73981;BME280;62348;51.412;5.436;2024-01-30T09:02:58;102464.66;;;8.06;100.00
73981;BME280;62348;51.412;5.436;2024-01-30T09:05:24;102465.91;;;8.10;100.00
73981;BME280;62348;51.412;5.436;2024-01-30T09:07:49;102462.59;;;8.15;100.00
73981;BME280;62348;51.412;5.436;2024-01-30T09:10:15;102466.53;;;8.19;100.00
73981;BME280;62348;51.412;5.436;2024-01-30T09:12:41;102469.84;;;8.21;100.00
73981;BME280;62348;51.412;5.436;2024-01-30T09:15:06;102461.38;;;8.24;100.00
73981;BME280;62348;51.412;5.436;2024-01-30T09:17:32;102470.69;;;8.28;100.00
73981;BME280;62348;51.412;5.436;2024-01-30T09:19:58;102480.03;;;8.32;100.00
73981;BME280;62348;51.412;5.436;2024-01-30T09:22:24;102481.28;;;8.36;100.00
73981;BME280;62348;51.412;5.436;2024-01-30T09:24:49;102480.88;;;8.39;100.00
73981;BME280;62348;51.412;5.436;2024-01-30T09:27:15;102480.50;;;8.43;100.00
73981;BME280;62348;51.412;5.436;2024-01-30T09:29:40;102484.25;;;8.48;100.00
73981;BME280;62348;51.412;5.436;2024-01-30T09:32:06;102479.28;;;8.52;100.00
73981;BME280;62348;51.412;5.436;2024-01-30T09:34:32;102482.34;;;8.55;100.00
73981;BME280;62348;51.412;5.436;2024-01-30T09:36:58;102491.72;;;8.59;100.00
73981;BME280;62348;51.412;5.436;2024-01-30T09:39:24;102488.78;;;8.61;100.00
73981;BME280;62348;51.412;5.436;2024-01-30T09:42:16;102497.28;;;8.65;100.00
73981;BME280;62348;51.412;5.436;2024-01-30T09:44:46;102495.22;;;8.67;100.00
73981;BME280;62348;51.412;5.436;2024-01-30T09:47:12;102491.28;;;8.69;100.00
73981;BME280;62348;51.412;5.436;2024-01-30T09:49:38;102503.53;;;8.72;100.00
73981;BME280;62348;51.412;5.436;2024-01-30T09:52:05;102501.25;;;8.75;100.00
73981;BME280;62348;51.412;5.436;2024-01-30T09:54:32;102503.75;;;8.77;100.00
73981;BME280;62348;51.412;5.436;2024-01-30T09:56:58;102505.19;;;8.79;100.00
73981;BME280;62348;51.412;5.436;2024-01-30T09:59:24;102515.56;;;8.83;100.00
73981;BME280;62348;51.412;5.436;2024-01-30T10:01:51;102520.75;;;8.84;100.00
73981;BME280;62348;51.412;5.436;2024-01-30T10:04:17;102513.06;;;8.88;100.00
73981;BME280;62348;51.412;5.436;2024-01-30T10:06:42;102512.66;;;8.91;100.00
73981;BME280;62348;51.412;5.436;2024-01-30T10:09:08;102510.16;;;8.96;100.00
73981;BME280;62348;51.412;5.436;2024-01-30T10:11:35;102505.19;;;8.99;100.00
73981;BME280;62348;51.412;5.436;2024-01-30T10:14:01;102506.41;;;9.04;100.00
73981;BME280;62348;51.412;5.436;2024-01-30T10:16:26;102512.22;;;9.07;100.00
73981;BME280;62348;51.412;5.436;2024-01-30T10:18:51;102512.63;;;9.11;100.00
73981;BME280;62348;51.412;5.436;2024-01-30T10:21:17;102513.25;;;9.13;100.00
73981;BME280;62348;51.412;5.436;2024-01-30T10:23:44;102517.19;;;9.17;100.00
73981;BME280;62348;51.412;5.436;2024-01-30T10:26:12;102520.28;;;9.21;100.00
73981;BME280;62348;51.412;5.436;2024-01-30T10:28:38;102521.94;;;9.22;100.00
73981;BME280;62348;51.412;5.436;2024-01-30T10:31:03;102528.81;;;9.24;100.00
73981;BME280;62348;51.412;5.436;2024-01-30T10:33:29;102525.03;;;9.25;100.00
73981;BME280;62348;51.412;5.436;2024-01-30T10:36:03;102525.88;;;9.26;100.00
73981;BME280;62348;51.412;5.436;2024-01-30T10:38:30;102529.22;;;9.28;100.00
73981;BME280;62348;51.412;5.436;2024-01-30T10:41:02;102539.56;;;9.31;100.00
73981;BME280;62348;51.412;5.436;2024-01-30T10:43:32;102533.97;;;9.32;100.00
73981;BME280;62348;51.412;5.436;2024-01-30T10:46:08;102536.66;;;9.32;100.00
73981;BME280;62348;51.412;5.436;2024-01-30T10:48:36;102538.53;;;9.32;100.00
73981;BME280;62348;51.412;5.436;2024-01-30T10:51:08;102539.38;;;9.32;100.00
73981;BME280;62348;51.412;5.436;2024-01-30T10:53:34;102539.38;;;9.32;100.00
73981;BME280;62348;51.412;5.436;2024-01-30T10:56:01;102534.78;;;9.33;100.00
73981;BME280;62348;51.412;5.436;2024-01-30T10:58:27;102538.97;;;9.35;100.00
73981;BME280;62348;51.412;5.436;2024-01-30T11:00:54;102535.81;;;9.38;100.00
73981;BME280;62348;51.412;5.436;2024-01-30T11:03:20;102538.94;;;9.42;100.00
73981;BME280;62348;51.412;5.436;2024-01-30T11:05:49;102539.13;;;9.47;100.00
73981;BME280;62348;51.412;5.436;2024-01-30T11:08:23;102537.44;;;9.53;100.00
73981;BME280;62348;51.412;5.436;2024-01-30T11:10:49;102535.38;;;9.55;100.00
73981;BME280;62348;51.412;5.436;2024-01-30T11:13:15;102531.41;;;9.57;100.00
73981;BME280;62348;51.412;5.436;2024-01-30T11:15:40;102533.91;;;9.59;100.00
73981;BME280;62348;51.412;5.436;2024-01-30T11:18:06;102525.59;;;9.61;100.00
73981;BME280;62348;51.412;5.436;2024-01-30T11:20:32;102523.72;;;9.61;100.00
73981;BME280;62348;51.412;5.436;2024-01-30T11:22:59;102544.91;;;9.64;100.00
73981;BME280;62348;51.412;5.436;2024-01-30T11:25:25;102536.78;;;9.64;100.00
73981;BME280;62348;51.412;5.436;2024-01-30T11:27:55;102538.22;;;9.67;100.00
73981;BME280;62348;51.412;5.436;2024-01-30T11:30:31;102531.56;;;9.69;100.00
73981;BME280;62348;51.412;5.436;2024-01-30T11:35:25;102526.16;;;9.76;100.00
73981;BME280;62348;51.412;5.436;2024-01-30T11:37:51;102537.34;;;9.80;100.00
73981;BME280;62348;51.412;5.436;2024-01-30T11:40:16;102528.19;;;9.81;100.00
73981;BME280;62348;51.412;5.436;2024-01-30T11:42:42;102526.97;;;9.83;100.00
73981;BME280;62348;51.412;5.436;2024-01-30T11:45:08;102530.28;;;9.85;100.00
73981;BME280;62348;51.412;5.436;2024-01-30T11:47:37;102523.81;;;9.86;100.00
73981;BME280;62348;51.412;5.436;2024-01-30T11:50:04;102521.72;;;9.88;100.00
73981;BME280;62348;51.412;5.436;2024-01-30T11:52:33;102523.38;;;9.89;100.00
73981;BME280;62348;51.412;5.436;2024-01-30T11:54:59;102522.34;;;9.90;100.00
73981;BME280;62348;51.412;5.436;2024-01-30T11:57:26;102521.09;;;9.93;100.00
73981;BME280;62348;51.412;5.436;2024-01-30T11:59:52;102520.88;;;9.94;100.00
73981;BME280;62348;51.412;5.436;2024-01-30T12:02:17;102526.44;;;10.00;100.00
73981;BME280;62348;51.412;5.436;2024-01-30T12:04:43;102528.72;;;10.03;100.00
73981;BME280;62348;51.412;5.436;2024-01-30T12:07:08;102527.25;;;10.07;100.00
73981;BME280;62348;51.412;5.436;2024-01-30T12:09:34;102527.44;;;10.12;100.00
73981;BME280;62348;51.412;5.436;2024-01-30T12:11:59;102531.34;;;10.16;100.00
73981;BME280;62348;51.412;5.436;2024-01-30T12:14:26;102536.34;;;10.19;100.00
73981;BME280;62348;51.412;5.436;2024-01-30T12:16:51;102541.53;;;10.21;100.00
73981;BME280;62348;51.412;5.436;2024-01-30T12:19:24;102545.28;;;10.20;100.00
73981;BME280;62348;51.412;5.436;2024-01-30T12:21:59;102544.66;;;10.18;100.00
73981;BME280;62348;51.412;5.436;2024-01-30T12:24:28;102546.34;;;10.12;100.00
73981;BME280;62348;51.412;5.436;2024-01-30T12:26:59;102554.28;;;10.07;100.00
73981;BME280;62348;51.412;5.436;2024-01-30T12:29:25;102555.75;;;10.03;100.00
73981;BME280;62348;51.412;5.436;2024-01-30T12:31:54;102575.31;;;9.98;100.00
73981;BME280;62348;51.412;5.436;2024-01-30T12:34:20;102564.94;;;9.95;100.00
73981;BME280;62348;51.412;5.436;2024-01-30T12:36:47;102575.34;;;9.91;100.00
73981;BME280;62348;51.412;5.436;2024-01-30T12:39:14;102564.53;;;9.91;100.00
73981;BME280;62348;51.412;5.436;2024-01-30T12:41:40;102581.34;;;9.93;100.00
73981;BME280;62348;51.412;5.436;2024-01-30T12:44:05;102573.03;;;9.95;100.00
73981;BME280;62348;51.412;5.436;2024-01-30T12:46:31;102567.63;;;9.95;100.00